createdAt,value
2022-11-19T00:01:26.562Z,81.86
2022-11-19T00:03:54.447Z,81.88
2022-11-19T00:06:23.157Z,82.31
2022-11-19T00:08:50.936Z,81.90
2022-11-19T00:11:42.096Z,81.89
2022-11-19T00:14:13.058Z,81.81
2022-11-19T00:16:40.966Z,82.04
2022-11-19T00:19:09.781Z,81.80
2022-11-19T00:21:37.185Z,81.71
2022-11-19T00:24:04.875Z,82.15
2022-11-19T00:26:32.215Z,81.84
2022-11-19T00:28:59.668Z,81.80
2022-11-19T00:31:28.392Z,82.03
2022-11-19T00:33:55.816Z,81.72
2022-11-19T00:36:23.547Z,81.85
2022-11-19T00:38:51.141Z,81.70
2022-11-19T00:41:18.600Z,81.80
2022-11-19T00:43:49.025Z,82.00
2022-11-19T00:46:18.352Z,81.99
2022-11-19T00:48:48.863Z,81.75
2022-11-19T00:51:17.660Z,81.96
2022-11-19T00:53:44.970Z,81.72
2022-11-19T00:56:14.936Z,81.96
2022-11-19T00:58:43.439Z,81.80
2022-11-19T01:01:12.137Z,82.03
2022-11-19T01:03:41.451Z,81.77
2022-11-19T01:06:11.165Z,81.77
2022-11-19T01:08:40.663Z,81.74
2022-11-19T01:11:10.792Z,82.42
2022-11-19T01:13:38.426Z,81.75
2022-11-19T01:16:08.335Z,81.79
2022-11-19T01:18:36.625Z,81.92
2022-11-19T01:21:04.715Z,82.20
2022-11-19T01:23:34.120Z,82.13
2022-11-19T01:26:01.882Z,82.06
2022-11-19T01:28:29.421Z,81.85
2022-11-19T01:30:57.133Z,81.62
2022-11-19T01:33:24.724Z,81.96
2022-11-19T01:35:56.670Z,82.11
2022-11-19T01:38:24.115Z,81.96
2022-11-19T01:40:52.887Z,82.12
2022-11-19T01:43:20.424Z,82.19
2022-11-19T01:45:49.623Z,81.73
2022-11-19T01:48:21.219Z,82.07
2022-11-19T01:50:52.394Z,82.22
2022-11-19T01:53:21.247Z,82.21
2022-11-19T01:55:50.733Z,81.82
2022-11-19T01:58:23.688Z,81.66
2022-11-19T02:00:50.899Z,81.53
2022-11-19T02:03:19.106Z,81.64
2022-11-19T02:05:47.630Z,81.87
2022-11-19T02:08:34.883Z,81.87
2022-11-19T02:11:15.265Z,81.98
2022-11-19T02:13:48.810Z,82.48
2022-11-19T02:16:24.401Z,81.64
2022-11-19T02:18:56.583Z,82.11
2022-11-19T02:21:33.443Z,81.67
2022-11-19T02:24:30.959Z,82.25
2022-11-19T02:27:28.900Z,81.80
2022-11-19T02:30:16.576Z,81.72
2022-11-19T02:32:54.251Z,81.69
2022-11-19T02:35:30.682Z,81.51
2022-11-19T02:38:04.168Z,81.48
2022-11-19T02:40:38.637Z,81.95
2022-11-19T02:43:14.290Z,81.83
2022-11-19T02:45:47.340Z,81.77
2022-11-19T02:48:18.328Z,82.16
2022-11-19T02:50:49.244Z,81.70
2022-11-19T02:53:16.647Z,81.61
2022-11-19T02:56:04.224Z,82.12
2022-11-19T02:59:08.085Z,81.38
2022-11-19T03:01:58.708Z,81.87
2022-11-19T03:04:30.836Z,81.25
2022-11-19T03:07:01.700Z,81.57
2022-11-19T03:09:31.446Z,81.95
2022-11-19T03:12:05.907Z,81.54
2022-11-19T03:15:00.176Z,81.85
2022-11-19T03:17:35.404Z,81.33
2022-11-19T03:20:08.450Z,81.89
2022-11-19T03:22:42.323Z,81.66
2022-11-19T03:25:15.525Z,81.93
2022-11-19T03:27:45.914Z,82.06
2022-11-19T03:30:15.259Z,81.88
2022-11-19T03:32:48.992Z,81.60
2022-11-19T03:35:20.007Z,81.57
2022-11-19T03:37:53.066Z,81.92
2022-11-19T03:40:22.614Z,81.75
2022-11-19T03:42:54.416Z,81.88
2022-11-19T03:45:26.230Z,81.77
2022-11-19T03:47:57.079Z,81.76
2022-11-19T03:50:29.496Z,81.80
2022-11-19T03:53:03.929Z,81.51
2022-11-19T03:55:35.692Z,81.71
2022-11-19T03:58:04.971Z,81.84
2022-11-19T04:00:32.755Z,81.50
2022-11-19T04:03:01.423Z,81.67
2022-11-19T04:05:28.671Z,81.45
2022-11-19T04:07:56.230Z,81.66
2022-11-19T04:10:23.475Z,81.07
2022-11-19T04:12:50.957Z,81.71
2022-11-19T04:15:18.312Z,81.95
2022-11-19T04:17:45.683Z,81.56
2022-11-19T04:20:14.847Z,81.60
2022-11-19T04:22:42.442Z,81.13
2022-11-19T04:25:10.786Z,81.85
2022-11-19T04:27:37.972Z,82.06
2022-11-19T04:30:06.285Z,81.74
2022-11-19T04:32:33.548Z,82.01
2022-11-19T04:35:00.805Z,81.89
2022-11-19T04:37:29.479Z,81.86
2022-11-19T04:39:56.822Z,81.70
2022-11-19T04:42:24.188Z,81.78
2022-11-19T04:44:51.503Z,82.03
2022-11-19T04:47:18.814Z,82.11
2022-11-19T04:49:46.062Z,82.13
2022-11-19T04:52:13.579Z,81.96
2022-11-19T04:54:42.233Z,81.89
2022-11-19T04:57:09.433Z,81.78
2022-11-19T04:59:36.646Z,81.83
2022-11-19T05:02:03.895Z,81.80
2022-11-19T05:04:31.153Z,81.78
2022-11-19T05:06:58.409Z,82.01
2022-11-19T05:09:25.730Z,81.75
2022-11-19T05:11:54.332Z,81.85
2022-11-19T05:14:23.751Z,81.88
2022-11-19T05:16:54.646Z,82.17
2022-11-19T05:19:22.128Z,82.35
2022-11-19T05:21:49.464Z,82.32
2022-11-19T05:24:16.770Z,82.41
2022-11-19T05:26:44.147Z,82.48
2022-11-19T05:29:12.922Z,82.32
2022-11-19T05:31:40.176Z,82.41
2022-11-19T05:34:07.786Z,82.57
2022-11-19T05:36:35.015Z,82.72
2022-11-19T05:39:02.213Z,82.38
2022-11-19T05:41:29.451Z,82.33
2022-11-19T05:43:56.980Z,82.31
2022-11-19T05:46:25.715Z,82.38
2022-11-19T05:48:52.959Z,82.37
2022-11-19T05:51:20.534Z,82.42
2022-11-19T05:53:47.786Z,82.41
2022-11-19T05:56:15.145Z,82.25
2022-11-19T05:58:42.512Z,82.32
2022-11-19T06:01:09.730Z,82.29
2022-11-19T06:03:38.456Z,82.33
2022-11-19T06:06:06.053Z,82.35
2022-11-19T06:08:33.391Z,82.60
2022-11-19T06:11:02.984Z,82.30
2022-11-19T06:13:30.440Z,82.46
2022-11-19T06:15:57.761Z,82.13
2022-11-19T06:18:25.094Z,81.93
2022-11-19T06:20:53.867Z,81.90
2022-11-19T06:23:21.116Z,81.55
2022-11-19T06:25:49.723Z,81.83
2022-11-19T06:28:16.931Z,81.70
2022-11-19T06:30:44.232Z,81.56
2022-11-19T06:33:11.500Z,81.75
2022-11-19T06:35:39.670Z,81.63
2022-11-19T06:38:08.410Z,81.67
2022-11-19T06:40:35.734Z,81.67
2022-11-19T06:43:04.469Z,81.39
2022-11-19T06:45:31.731Z,81.54
2022-11-19T06:47:59.323Z,81.49
2022-11-19T06:50:26.670Z,81.63
2022-11-19T06:52:53.811Z,81.29
2022-11-19T06:55:22.736Z,81.74
2022-11-19T06:57:50.048Z,81.45
2022-11-19T07:00:18.123Z,81.80
2022-11-19T07:02:45.441Z,82.02
2022-11-19T07:05:12.815Z,81.90
2022-11-19T07:07:40.150Z,82.08
2022-11-19T07:10:08.918Z,82.25
2022-11-19T07:12:37.688Z,82.25
2022-11-19T07:15:05.904Z,82.65
2022-11-19T07:17:33.962Z,82.51
2022-11-19T07:20:01.268Z,82.66
2022-11-19T07:22:29.043Z,82.88
2022-11-19T07:24:56.207Z,82.68
2022-11-19T07:27:23.583Z,82.87
2022-11-19T07:29:52.162Z,82.95
2022-11-19T07:32:19.673Z,83.26
2022-11-19T07:34:46.884Z,83.17
2022-11-19T07:37:14.131Z,83.04
2022-11-19T07:39:41.333Z,83.03
2022-11-19T07:42:27.467Z,82.83
2022-11-19T07:44:56.361Z,83.10
2022-11-19T07:47:23.683Z,82.96
2022-11-19T07:49:50.930Z,83.12
2022-11-19T07:52:18.467Z,82.97
2022-11-19T07:54:45.833Z,83.08
2022-11-19T07:57:12.989Z,83.10
2022-11-19T07:59:40.191Z,82.96
2022-11-19T08:02:11.121Z,82.75
2022-11-19T08:04:38.696Z,82.93
2022-11-19T08:07:06.526Z,83.00
2022-11-19T08:09:34.320Z,82.90
2022-11-19T08:12:01.557Z,82.91
2022-11-19T08:14:29.147Z,82.93
2022-11-19T08:17:15.086Z,82.79
2022-11-19T08:19:43.815Z,82.74
2022-11-19T08:22:11.126Z,82.98
2022-11-19T08:24:38.399Z,83.01
2022-11-19T08:27:05.647Z,83.05
2022-11-19T08:29:33.190Z,82.69
2022-11-19T08:32:00.459Z,82.72
2022-11-19T08:34:30.089Z,82.56
2022-11-19T08:36:58.951Z,82.60
2022-11-19T08:39:26.175Z,82.77
2022-11-19T08:42:11.895Z,82.69
2022-11-19T08:44:39.127Z,82.69
2022-11-19T08:47:06.356Z,82.64
2022-11-19T08:49:33.639Z,82.74
2022-11-19T08:52:02.373Z,82.68
2022-11-19T08:54:29.736Z,82.64
2022-11-19T08:56:57.012Z,82.57
2022-11-19T08:59:24.785Z,82.49
2022-11-19T09:01:52.131Z,82.50
2022-11-19T09:04:19.511Z,82.42
2022-11-19T09:06:46.940Z,82.54
2022-11-19T09:09:15.665Z,82.97
2022-11-19T09:11:43.292Z,82.73
2022-11-19T09:14:10.796Z,82.23
2022-11-19T09:16:38.202Z,82.73
2022-11-19T09:19:05.347Z,82.70
2022-11-19T09:21:32.677Z,82.58
2022-11-19T09:23:59.852Z,82.95
2022-11-19T09:26:28.612Z,83.20
2022-11-19T09:28:56.139Z,83.10
2022-11-19T09:31:23.592Z,82.83
2022-11-19T09:33:52.239Z,83.42
2022-11-19T09:36:19.992Z,83.40
2022-11-19T09:38:47.838Z,83.54
2022-11-19T09:41:47.484Z,83.34
2022-11-19T09:44:41.511Z,83.72
2022-11-19T09:47:22.683Z,83.53
2022-11-19T09:50:00.166Z,83.90
2022-11-19T09:52:34.002Z,83.55
2022-11-19T09:55:02.823Z,83.75
2022-11-19T09:57:37.049Z,84.24
2022-11-19T10:00:13.334Z,84.28
2022-11-19T10:02:40.614Z,84.16
2022-11-19T10:05:13.774Z,84.21
2022-11-19T10:07:51.517Z,84.14
2022-11-19T10:10:34.249Z,83.97
2022-11-19T10:13:28.362Z,83.98
2022-11-19T10:16:06.151Z,83.94
2022-11-19T10:18:43.507Z,83.78
2022-11-19T10:21:17.860Z,83.88
2022-11-19T10:23:50.383Z,83.78
2022-11-19T10:26:19.464Z,84.18
2022-11-19T10:28:55.767Z,84.11
2022-11-19T10:31:30.193Z,84.10
2022-11-19T10:34:04.588Z,83.95
2022-11-19T10:36:37.345Z,84.49
2022-11-19T10:39:10.687Z,84.26
2022-11-19T10:41:47.162Z,84.25
2022-11-19T10:44:40.503Z,84.34
2022-11-19T10:47:13.711Z,84.28
2022-11-19T10:49:42.968Z,84.59
2022-11-19T10:52:20.561Z,84.37
2022-11-19T10:54:49.033Z,84.36
2022-11-19T10:57:19.201Z,84.65
2022-11-19T10:59:49.805Z,84.85
2022-11-19T11:02:27.813Z,84.63
2022-11-19T11:05:08.889Z,84.75
2022-11-19T11:07:50.525Z,84.93
2022-11-19T11:10:34.827Z,84.99
2022-11-19T11:13:46.991Z,85.15
2022-11-19T11:16:18.306Z,85.04
2022-11-19T11:18:48.375Z,85.20
2022-11-19T11:21:29.071Z,84.80
2022-11-19T11:23:57.181Z,84.95
2022-11-19T11:26:26.417Z,85.13
2022-11-19T11:29:00.461Z,84.95
2022-11-19T11:31:40.112Z,84.91
2022-11-19T11:34:15.685Z,84.85
2022-11-19T11:36:44.446Z,84.95
2022-11-19T11:39:25.703Z,84.57
2022-11-19T11:42:05.440Z,84.92
2022-11-19T11:44:35.953Z,84.98
2022-11-19T11:47:11.729Z,85.06
2022-11-19T11:49:42.141Z,84.88
2022-11-19T11:52:21.481Z,84.90
2022-11-19T11:54:57.440Z,84.75
2022-11-19T11:57:27.768Z,84.95
2022-11-19T11:59:55.373Z,85.01
2022-11-19T12:02:30.827Z,85.06
2022-11-19T12:05:02.653Z,85.10
2022-11-19T12:07:56.809Z,85.37
2022-11-19T12:10:28.978Z,85.20
2022-11-19T12:13:36.593Z,85.26
2022-11-19T12:16:12.593Z,85.37
2022-11-19T12:18:49.245Z,85.23
2022-11-19T12:21:28.162Z,85.47
2022-11-19T12:24:11.646Z,85.58
2022-11-19T12:26:49.281Z,85.47
2022-11-19T12:29:25.044Z,85.45
2022-11-19T12:32:07.616Z,85.77
2022-11-19T12:34:50.435Z,85.73
2022-11-19T12:37:33.775Z,86.15
2022-11-19T12:40:13.704Z,86.01
2022-11-19T12:42:54.194Z,85.89
2022-11-19T12:45:36.189Z,86.54
2022-11-19T12:48:29.692Z,86.66
2022-11-19T12:51:05.174Z,86.85
2022-11-19T12:53:49.093Z,86.69
2022-11-19T12:56:30.235Z,86.97
2022-11-19T12:59:06.347Z,86.86
2022-11-19T13:01:38.473Z,86.87
2022-11-19T13:04:13.179Z,87.04
2022-11-19T13:06:47.834Z,87.03
2022-11-19T13:09:21.392Z,86.67
2022-11-19T13:11:54.525Z,87.17
2022-11-19T13:14:33.222Z,87.26
2022-11-19T13:17:03.442Z,86.93
2022-11-19T13:19:34.206Z,87.49
2022-11-19T13:22:11.192Z,87.33
2022-11-19T13:24:42.626Z,87.42
2022-11-19T13:27:15.620Z,87.39
2022-11-19T13:29:52.747Z,87.40
2022-11-19T13:32:26.376Z,87.63
2022-11-19T13:35:02.942Z,87.39
2022-11-19T13:37:41.072Z,87.68
2022-11-19T13:40:20.583Z,87.69
2022-11-19T13:46:05.632Z,87.93
2022-11-19T13:48:36.527Z,87.86
2022-11-19T13:51:09.870Z,87.72
2022-11-19T13:53:43.966Z,87.60
2022-11-19T13:56:15.612Z,87.49
2022-11-19T13:58:47.658Z,87.50
2022-11-19T14:01:31.191Z,87.48
2022-11-19T14:04:16.789Z,88.15
2022-11-19T14:07:02.858Z,87.65
2022-11-19T14:09:41.255Z,88.04
2022-11-19T14:12:37.858Z,87.56
2022-11-19T14:15:45.181Z,87.93
2022-11-19T14:18:42.285Z,88.16
2022-11-19T14:22:05.022Z,87.80
2022-11-19T14:25:14.455Z,88.05
2022-11-19T14:27:42.425Z,88.26
2022-11-19T14:30:18.958Z,88.01
2022-11-19T14:32:49.484Z,87.88
2022-11-19T14:35:40.844Z,88.61
2022-11-19T14:38:32.559Z,88.60
2022-11-19T14:41:08.309Z,88.47
2022-11-19T14:44:08.763Z,88.23
2022-11-19T14:46:37.566Z,87.89
2022-11-19T14:49:23.448Z,88.58
2022-11-19T14:51:54.261Z,88.49
2022-11-19T14:54:32.007Z,88.21
2022-11-19T14:57:05.020Z,89.00
2022-11-19T14:59:35.789Z,88.33
2022-11-19T15:02:15.188Z,88.81
2022-11-19T15:04:51.883Z,88.52
2022-11-19T15:07:34.988Z,88.66
2022-11-19T15:10:24.583Z,88.82
2022-11-19T15:13:05.550Z,88.67
2022-11-19T15:15:41.472Z,89.17
2022-11-19T15:18:38.343Z,88.77
2022-11-19T15:21:23.950Z,88.84
2022-11-19T15:24:00.602Z,89.30
2022-11-19T15:26:36.681Z,89.43
2022-11-19T15:29:17.163Z,88.97
2022-11-19T15:32:02.203Z,89.47
2022-11-19T15:37:47.615Z,89.47
2022-11-19T15:40:19.662Z,89.29
2022-11-19T15:42:53.262Z,89.58
2022-11-19T15:45:24.852Z,89.98
2022-11-19T15:47:57.640Z,89.99
2022-11-19T15:50:27.942Z,90.13
2022-11-19T15:52:59.506Z,89.70
2022-11-19T15:55:29.117Z,90.34
2022-11-19T15:58:01.773Z,89.66
2022-11-19T16:00:31.373Z,89.78
2022-11-19T16:02:59.166Z,90.21
2022-11-19T16:05:29.697Z,90.02
2022-11-19T16:07:59.964Z,90.13
2022-11-19T16:10:30.171Z,89.87
2022-11-19T16:13:17.906Z,90.13
2022-11-19T16:16:10.372Z,89.97
2022-11-19T16:18:46.483Z,90.63
2022-11-19T16:21:18.252Z,90.38
2022-11-19T16:24:06.148Z,90.25
2022-11-19T16:26:36.417Z,90.13
2022-11-19T16:29:04.403Z,90.29
2022-11-19T16:31:33.323Z,90.15
2022-11-19T16:34:00.944Z,90.58
2022-11-19T16:36:32.114Z,90.50
2022-11-19T16:39:00.278Z,90.70
2022-11-19T16:41:46.572Z,90.41
2022-11-19T16:44:16.944Z,90.85
2022-11-19T17:22:29.026Z,90.83
2022-11-19T17:24:56.406Z,90.80
2022-11-19T17:47:21.322Z,91.10
2022-11-19T17:49:50.555Z,91.21
2022-11-19T17:52:22.654Z,91.88
2022-11-19T17:54:51.006Z,91.65
2022-11-19T17:57:18.439Z,91.42
2022-11-19T17:59:45.681Z,92.05
2022-11-19T18:02:16.541Z,91.80
2022-11-19T18:04:44.958Z,91.70
2022-11-19T18:07:12.640Z,91.83
2022-11-19T18:09:40.534Z,92.41
2022-11-19T18:12:12.786Z,91.83
2022-11-19T18:14:40.262Z,92.06
2022-11-19T18:17:10.871Z,92.52
2022-11-19T18:19:39.512Z,91.90
2022-11-19T18:22:10.123Z,92.35
2022-11-19T18:24:37.495Z,92.47
2022-11-19T18:27:04.741Z,92.72
2022-11-19T18:29:32.256Z,92.54
2022-11-19T18:31:59.507Z,92.66
2022-11-19T18:34:26.971Z,92.54
2022-11-19T18:36:55.561Z,92.33
2022-11-19T18:39:23.544Z,92.15
2022-11-19T18:41:51.482Z,92.24
2022-11-19T18:44:34.051Z,91.84
2022-11-19T18:47:02.934Z,91.85
2022-11-19T18:49:30.781Z,91.83
2022-11-19T18:51:59.561Z,91.69
2022-11-19T18:54:26.932Z,91.82
2022-11-19T18:56:54.411Z,92.00
2022-11-19T18:59:22.279Z,91.89
2022-11-19T19:01:52.276Z,92.14
2022-11-19T19:04:19.985Z,91.85
2022-11-19T19:06:47.489Z,91.30
2022-11-19T19:09:22.648Z,91.95
2022-11-19T19:12:13.559Z,91.52
2022-11-19T19:14:41.550Z,91.75
2022-11-19T19:17:09.007Z,92.11
2022-11-19T19:19:36.349Z,91.70
2022-11-19T19:22:04.869Z,91.54
2022-11-19T19:24:33.540Z,91.50
2022-11-19T19:27:02.051Z,91.94
2022-11-19T19:29:29.382Z,91.96
2022-11-19T19:31:58.095Z,91.79
2022-11-19T19:34:25.420Z,91.63
2022-11-19T19:36:53.753Z,91.43
2022-11-19T19:39:21.778Z,91.26
2022-11-19T19:41:50.937Z,91.19
2022-11-19T19:44:18.296Z,91.61
2022-11-19T19:46:48.149Z,91.60
2022-11-19T19:49:15.859Z,91.62
2022-11-19T19:51:43.223Z,91.36
2022-11-19T19:54:10.473Z,91.12
2022-11-19T19:56:37.932Z,91.13
2022-11-19T19:59:06.931Z,91.38
2022-11-19T20:01:36.105Z,90.92
2022-11-19T20:04:06.293Z,90.62
2022-11-19T20:06:36.320Z,90.76
2022-11-19T20:09:08.807Z,90.35
2022-11-19T20:11:36.978Z,91.14
2022-11-19T20:14:06.428Z,90.32
2022-11-19T20:16:35.246Z,90.41
2022-11-19T20:19:02.756Z,90.10
2022-11-19T20:21:33.946Z,90.15
2022-11-19T20:24:04.866Z,90.74
2022-11-19T20:26:34.720Z,90.80
2022-11-19T20:29:03.830Z,90.26
2022-11-19T20:31:33.824Z,90.62
2022-11-19T20:34:02.655Z,90.21
2022-11-19T20:36:32.103Z,90.10
2022-11-19T20:38:59.731Z,90.09
2022-11-19T20:41:46.798Z,90.80
2022-11-19T20:44:21.791Z,90.82
2022-11-19T20:46:52.823Z,90.88
2022-11-19T20:49:21.674Z,90.90
2022-11-19T20:51:49.110Z,90.66
2022-11-19T20:54:16.738Z,90.88
2022-11-19T20:56:44.148Z,91.08
2022-11-19T20:59:12.350Z,91.57
2022-11-19T21:01:39.948Z,91.30
2022-11-19T21:04:10.510Z,90.84
2022-11-19T21:06:38.746Z,91.44
2022-11-19T21:09:06.195Z,91.56
2022-11-19T21:11:33.938Z,91.15
2022-11-19T21:14:01.596Z,91.33
2022-11-19T21:16:29.155Z,91.32
2022-11-19T21:18:56.784Z,91.27
2022-11-19T21:21:26.329Z,91.66
2022-11-19T21:23:54.873Z,91.51
2022-11-19T21:26:24.035Z,91.77
2022-11-19T21:28:52.845Z,91.98
2022-11-19T21:31:21.935Z,91.79
2022-11-19T21:33:49.407Z,92.33
2022-11-19T21:36:16.946Z,92.42
2022-11-19T21:38:45.789Z,92.68
2022-11-19T21:41:12.967Z,92.14
2022-11-19T21:43:40.428Z,92.69
2022-11-19T21:46:08.180Z,92.89
2022-11-19T21:48:37.295Z,92.84
2022-11-19T21:51:07.530Z,92.93
2022-11-19T21:53:35.792Z,92.93
2022-11-19T21:56:05.062Z,92.66
2022-11-19T21:58:32.268Z,93.15
2022-11-19T22:01:00.280Z,92.87
2022-11-19T22:03:28.489Z,93.06
2022-11-19T22:05:59.946Z,92.64
2022-11-19T22:08:29.378Z,93.31
2022-11-19T22:10:57.126Z,93.22
2022-11-19T22:13:25.810Z,93.33
2022-11-19T22:16:02.306Z,93.91
2022-11-19T22:18:29.655Z,93.21
2022-11-19T22:21:03.802Z,93.27
2022-11-19T22:23:31.055Z,93.51
2022-11-19T22:26:04.043Z,93.70
2022-11-19T22:28:32.861Z,93.79
2022-11-19T22:31:00.271Z,93.59
2022-11-19T22:33:30.108Z,94.01
2022-11-19T22:35:58.539Z,93.74
2022-11-19T22:38:26.660Z,94.00
2022-11-19T22:40:54.231Z,93.78
2022-11-19T22:43:24.257Z,93.88
2022-11-19T22:45:53.221Z,93.86
2022-11-19T22:48:20.906Z,93.84
2022-11-19T22:50:48.170Z,93.39
2022-11-19T22:53:17.261Z,93.79
2022-11-19T22:55:44.404Z,93.51
2022-11-19T22:58:11.584Z,94.00
2022-11-19T23:00:41.200Z,93.43
2022-11-19T23:03:10.699Z,93.82
2022-11-19T23:05:38.205Z,94.07
2022-11-19T23:08:07.673Z,93.60
2022-11-19T23:10:34.972Z,93.82
2022-11-19T23:13:21.587Z,94.09
2022-11-19T23:15:59.064Z,93.45
2022-11-19T23:18:28.824Z,94.00
2022-11-19T23:20:56.756Z,93.60
2022-11-19T23:23:24.361Z,93.42
2022-11-19T23:25:56.020Z,94.05
2022-11-19T23:28:23.544Z,94.10
2022-11-19T23:30:50.919Z,94.33
2022-11-19T23:33:18.402Z,94.23
2022-11-19T23:35:47.068Z,94.37
2022-11-19T23:38:14.657Z,93.81
2022-11-19T23:40:41.954Z,94.01
2022-11-19T23:43:09.280Z,94.05
2022-11-19T23:45:37.082Z,93.95
2022-11-19T23:48:04.626Z,93.90
2022-11-19T23:50:32.145Z,93.86
2022-11-19T23:53:00.966Z,94.51
2022-11-19T23:55:28.362Z,93.74
2022-11-19T23:57:55.679Z,93.93
